Time;durP1;ratioP1;P1;durP2;ratioP2;P2;SDS_P1;SDS_P2;PMS_P1;PMS_P2;Temp;Humidity;BMP_temperature;BMP_pressure;BME280_temperature;BME280_humidity;BME280_pressure;Samples;Min_cycle;Max_cycle;Signal;HPM_P1;HPM_P2
2021/08/26 00:05:42;;;;;;;11.85;6.65;;;11.70;99.90;;;;;;5131008;27;20024;-73
2021/08/26 00:06:45;;;;;;;10.90;6.97;;;11.70;99.90;;;;;;5123133;27;20026;-73
2021/08/26 00:09:11;;;;;;;13.70;7.20;;;11.70;99.90;;;;;;5136948;27;20031;-73
2021/08/26 00:11:37;;;;;;;12.88;7.20;;;11.70;99.90;;;;;;5136719;27;20520;-73
2021/08/26 00:14:05;;;;;;;12.00;6.53;;;11.60;99.90;;;;;;5136903;27;20034;-73
2021/08/26 00:16:32;;;;;;;16.83;6.68;;;11.60;99.90;;;;;;5136883;27;20051;-73
2021/08/26 00:18:57;;;;;;;12.13;6.97;;;11.60;99.90;;;;;;5136594;27;20452;-73
2021/08/26 00:21:23;;;;;;;18.27;8.35;;;11.60;99.90;;;;;;5136793;27;20023;-73
2021/08/26 00:23:49;;;;;;;12.80;7.18;;;11.60;99.90;;;;;;5136536;27;20413;-73
2021/08/26 00:26:14;;;;;;;11.32;7.72;;;11.60;99.90;;;;;;5136336;27;20094;-73
2021/08/26 00:28:40;;;;;;;15.40;8.02;;;11.50;99.90;;;;;;5136376;27;20050;-73
2021/08/26 00:31:06;;;;;;;11.02;6.88;;;11.50;99.90;;;;;;5136398;27;20053;-73
2021/08/26 00:33:32;;;;;;;9.43;6.25;;;11.50;99.90;;;;;;5136196;27;20110;-73
2021/08/26 00:35:57;;;;;;;9.85;6.43;;;11.50;99.90;;;;;;5123107;27;20107;-73
2021/08/26 00:38:24;;;;;;;14.30;7.53;;;11.50;99.90;;;;;;5115737;28;20411;-73
2021/08/26 00:40:51;;;;;;;9.68;6.75;;;11.50;99.90;;;;;;5115811;28;20016;-73
2021/08/26 00:43:17;;;;;;;9.50;6.28;;;11.50;99.90;;;;;;5115819;28;20460;-73
2021/08/26 00:45:44;;;;;;;13.15;7.65;;;11.40;99.90;;;;;;5115691;28;20028;-73
2021/08/26 00:48:10;;;;;;;10.50;6.65;;;11.40;99.90;;;;;;5115433;28;20020;-73
2021/08/26 00:50:36;;;;;;;13.63;7.70;;;11.30;99.90;;;;;;5115497;28;20032;-73
2021/08/26 00:53:01;;;;;;;13.70;7.40;;;11.40;99.90;;;;;;5115733;28;20403;-73
2021/08/26 00:55:27;;;;;;;10.23;6.40;;;11.40;99.90;;;;;;5115420;28;20024;-73
2021/08/26 00:57:53;;;;;;;11.63;7.07;;;11.30;99.90;;;;;;5109016;28;20498;-73
2021/08/26 01:00:20;;;;;;;12.43;7.03;;;11.30;99.90;;;;;;5108009;28;20020;-72
2021/08/26 01:03:13;;;;;;;13.52;7.30;;;11.30;99.90;;;;;;5115114;28;20019;-73
2021/08/26 01:05:53;;;;;;;13.60;7.50;;;11.30;99.90;;;;;;5114599;28;20028;-73
2021/08/26 01:08:32;;;;;;;14.95;7.38;;;11.30;99.90;;;;;;5101719;28;20073;-73
2021/08/26 01:10:59;;;;;;;13.70;7.57;;;11.30;99.90;;;;;;5094553;28;20023;-72
2021/08/26 01:13:33;;;;;;;12.93;7.22;;;11.30;99.90;;;;;;5107634;28;20047;-73
2021/08/26 01:16:07;;;;;;;14.18;7.97;;;11.30;99.90;;;;;;5112980;28;20035;-73
2021/08/26 01:18:37;;;;;;;11.50;6.95;;;11.30;99.90;;;;;;5114596;28;20012;-73
2021/08/26 01:21:05;;;;;;;11.85;7.18;;;11.30;99.90;;;;;;5114603;28;20020;-73
2021/08/26 01:23:36;;;;;;;12.55;7.13;;;11.40;99.90;;;;;;5114342;28;20100;-73
2021/08/26 01:26:04;;;;;;;11.52;6.28;;;11.40;99.90;;;;;;5092696;28;20081;-73
2021/08/26 01:28:40;;;;;;;11.73;7.22;;;11.40;99.90;;;;;;5094027;28;20074;-72
2021/08/26 01:31:05;;;;;;;11.60;7.22;;;11.40;99.90;;;;;;5094873;28;20085;-72
2021/08/26 01:33:32;;;;;;;15.15;7.38;;;11.40;99.90;;;;;;5114504;28;20024;-72
2021/08/26 01:36:01;;;;;;;13.60;7.65;;;11.40;99.90;;;;;;5114431;28;20024;-73
2021/08/26 01:38:27;;;;;;;11.15;7.18;;;11.40;99.90;;;;;;5113831;28;20015;-73
2021/08/26 01:40:52;;;;;;;18.02;7.72;;;11.40;99.90;;;;;;5111753;28;20015;-73
2021/08/26 01:43:21;;;;;;;12.40;7.57;;;11.40;99.90;;;;;;5114021;28;20102;-72
2021/08/26 01:45:47;;;;;;;11.45;7.05;;;11.50;99.90;;;;;;5114174;28;20020;-72
2021/08/26 01:48:20;;;;;;;11.48;7.25;;;11.50;99.90;;;;;;5114171;28;20102;-72
2021/08/26 01:50:50;;;;;;;10.75;7.40;;;11.50;99.90;;;;;;5114120;28;20028;-72
2021/08/26 01:53:16;;;;;;;13.13;8.27;;;11.50;99.90;;;;;;5113869;28;20028;-73
2021/08/26 01:55:42;;;;;;;13.23;7.72;;;11.50;99.90;;;;;;5095575;28;20035;-73
2021/08/26 01:58:14;;;;;;;10.82;7.72;;;11.50;99.90;;;;;;5099173;28;20067;-73
2021/08/26 02:00:40;;;;;;;11.82;7.50;;;11.50;99.90;;;;;;5113690;28;20023;-73
2021/08/26 02:03:06;;;;;;;12.23;7.60;;;11.50;99.90;;;;;;5113380;28;20073;-73
2021/08/26 02:05:31;;;;;;;13.85;7.53;;;11.60;99.90;;;;;;5113606;28;20023;-73
2021/08/26 02:07:57;;;;;;;14.88;7.78;;;11.50;99.90;;;;;;5113862;28;20023;-73
2021/08/26 02:10:23;;;;;;;12.25;7.85;;;11.50;99.90;;;;;;5109191;28;20031;-73
2021/08/26 02:12:49;;;;;;;12.88;7.53;;;11.60;99.90;;;;;;5093335;28;20031;-73
2021/08/26 02:15:16;;;;;;;11.85;7.60;;;11.60;99.90;;;;;;5076790;28;20503;-73
2021/08/26 02:17:42;;;;;;;13.35;7.72;;;11.60;99.90;;;;;;5113033;28;20130;-73
2021/08/26 02:20:08;;;;;;;11.60;7.90;;;11.50;99.90;;;;;;5113689;28;20100;-73
2021/08/26 02:22:34;;;;;;;10.77;7.25;;;11.50;99.90;;;;;;5085418;28;20024;-73
2021/08/26 02:25:02;;;;;;;11.60;7.50;;;11.60;99.90;;;;;;5092899;28;20032;-73
2021/08/26 02:27:27;;;;;;;9.80;6.85;;;11.60;99.90;;;;;;5097135;28;20431;-73
2021/08/26 02:29:53;;;;;;;11.57;7.28;;;11.70;99.90;;;;;;5109896;28;20034;-73
2021/08/26 02:32:18;;;;;;;12.90;8.27;;;11.70;99.90;;;;;;5110957;28;20026;-73
2021/08/26 02:34:44;;;;;;;15.40;7.85;;;11.70;99.90;;;;;;5092580;28;20035;-73
2021/08/26 02:37:09;;;;;;;11.80;7.05;;;11.70;99.90;;;;;;5092771;28;20111;-73
2021/08/26 02:39:35;;;;;;;10.85;7.70;;;11.80;99.90;;;;;;5097375;28;20058;-73
2021/08/26 02:42:03;;;;;;;13.75;7.80;;;11.80;99.90;;;;;;5092555;28;20027;-73
2021/08/26 02:44:29;;;;;;;11.90;7.53;;;11.80;99.90;;;;;;5095324;28;20373;-73
2021/08/26 02:46:55;;;;;;;11.95;7.43;;;11.70;99.90;;;;;;5097306;28;20028;-73
2021/08/26 02:49:21;;;;;;;11.57;7.10;;;11.80;99.90;;;;;;5107256;28;20066;-73
2021/08/26 02:51:47;;;;;;;14.88;7.30;;;11.80;99.90;;;;;;5097631;28;20124;-73
2021/08/26 02:54:12;;;;;;;10.70;7.60;;;11.80;99.90;;;;;;5106692;28;20055;-72
2021/08/26 02:56:38;;;;;;;10.52;7.32;;;11.80;99.90;;;;;;5123455;28;20065;-73
2021/08/26 02:59:03;;;;;;;11.20;7.95;;;11.80;99.90;;;;;;5118497;28;20168;-73
2021/08/26 03:01:29;;;;;;;12.35;7.63;;;11.90;99.90;;;;;;5118940;28;20091;-75
2021/08/26 03:03:54;;;;;;;13.75;7.63;;;11.90;99.90;;;;;;5117258;28;20027;-75
2021/08/26 03:06:20;;;;;;;17.30;8.20;;;11.90;99.90;;;;;;5113370;28;20031;-75
2021/08/26 03:08:46;;;;;;;12.20;8.60;;;11.90;99.90;;;;;;5120929;28;20039;-75
2021/08/26 03:11:11;;;;;;;14.25;7.97;;;12.00;99.90;;;;;;5121210;28;20019;-75
2021/08/26 03:13:37;;;;;;;12.82;7.13;;;12.00;99.90;;;;;;5108915;28;20293;-75
2021/08/26 03:16:04;;;;;;;13.80;7.90;;;12.00;99.90;;;;;;5119699;28;20050;-75
2021/08/26 03:18:30;;;;;;;11.98;7.72;;;12.10;99.90;;;;;;5110639;28;20031;-75
2021/08/26 03:20:55;;;;;;;13.05;8.18;;;12.10;99.90;;;;;;5117519;28;20016;-75
2021/08/26 03:23:21;;;;;;;11.70;8.15;;;12.10;99.90;;;;;;5111089;28;20750;-75
2021/08/26 03:25:48;;;;;;;13.55;8.20;;;12.20;99.90;;;;;;5093283;28;20040;-75
2021/08/26 03:28:13;;;;;;;10.90;7.45;;;12.20;99.90;;;;;;5111310;28;20106;-75
2021/08/26 03:30:39;;;;;;;14.15;8.40;;;12.20;99.90;;;;;;5113257;28;20536;-75
2021/08/26 03:33:05;;;;;;;12.85;8.45;;;12.20;99.90;;;;;;5116493;28;20084;-75
2021/08/26 03:35:31;;;;;;;12.40;8.10;;;12.20;99.90;;;;;;5116022;28;20134;-75
2021/08/26 03:37:56;;;;;;;12.48;8.60;;;12.20;99.90;;;;;;5107437;28;20024;-74
2021/08/26 03:40:22;;;;;;;13.32;8.32;;;12.20;99.90;;;;;;5117419;28;20034;-75
2021/08/26 03:42:47;;;;;;;10.50;7.82;;;12.20;99.90;;;;;;5107613;28;20094;-75
2021/08/26 03:45:13;;;;;;;12.60;8.07;;;12.30;99.90;;;;;;5120071;28;20024;-75
2021/08/26 03:47:39;;;;;;;15.48;7.57;;;12.40;99.90;;;;;;5110186;28;20031;-75
2021/08/26 03:50:05;;;;;;;15.35;7.70;;;12.40;99.90;;;;;;5094287;28;20031;-75
2021/08/26 03:52:30;;;;;;;11.32;8.00;;;12.40;99.90;;;;;;5120611;28;20039;-75
2021/08/26 03:54:56;;;;;;;13.10;7.93;;;12.40;99.90;;;;;;5113165;28;20524;-74
2021/08/26 03:57:21;;;;;;;13.93;8.80;;;12.40;99.90;;;;;;5116431;28;20388;-75
2021/08/26 03:59:47;;;;;;;14.07;7.88;;;12.40;99.90;;;;;;5121354;28;20046;-75
2021/08/26 04:02:12;;;;;;;11.85;8.40;;;12.40;99.90;;;;;;5120136;27;20030;-75
2021/08/26 04:04:38;;;;;;;10.70;7.72;;;12.30;99.90;;;;;;5115858;27;20027;-73
2021/08/26 04:07:03;;;;;;;13.88;8.32;;;12.40;99.90;;;;;;5104471;28;20027;-73
2021/08/26 04:09:29;;;;;;;11.93;7.93;;;12.40;99.90;;;;;;5097001;28;20118;-73
2021/08/26 04:11:55;;;;;;;14.18;8.45;;;12.30;99.90;;;;;;5093599;28;20085;-73
2021/08/26 04:14:20;;;;;;;11.82;7.97;;;12.30;99.90;;;;;;5112633;28;20095;-73
2021/08/26 04:16:46;;;;;;;10.40;8.13;;;12.30;99.90;;;;;;5094879;28;20044;-73
2021/08/26 04:19:11;;;;;;;12.52;8.02;;;12.30;99.90;;;;;;5111633;27;20019;-73
2021/08/26 04:21:37;;;;;;;13.43;8.05;;;12.30;99.90;;;;;;5118175;27;20086;-73
2021/08/26 04:24:02;;;;;;;10.70;7.70;;;12.30;99.90;;;;;;5111815;28;20023;-73
2021/08/26 04:26:28;;;;;;;11.20;8.05;;;12.20;99.90;;;;;;5114300;28;20088;-72
2021/08/26 04:28:54;;;;;;;12.73;8.13;;;12.20;99.90;;;;;;5116362;28;20031;-73
2021/08/26 04:31:19;;;;;;;13.02;8.32;;;12.10;99.90;;;;;;5116053;28;20024;-73
2021/08/26 04:33:45;;;;;;;12.18;7.85;;;12.10;99.90;;;;;;5116246;28;20061;-72
2021/08/26 04:36:11;;;;;;;13.00;8.45;;;12.10;99.90;;;;;;5115674;28;20031;-72
2021/08/26 04:38:37;;;;;;;9.93;7.78;;;12.00;99.90;;;;;;5115957;28;20027;-72
2021/08/26 04:41:03;;;;;;;12.35;8.68;;;12.00;99.90;;;;;;5116217;28;20470;-73
2021/08/26 04:43:29;;;;;;;26.33;8.82;;;12.00;99.90;;;;;;5114899;28;20026;-75
2021/08/26 04:45:54;;;;;;;13.00;7.90;;;11.90;99.90;;;;;;5103258;28;20016;-73
2021/08/26 04:48:20;;;;;;;13.65;7.80;;;11.90;99.90;;;;;;5107657;27;20764;-75
2021/08/26 04:50:45;;;;;;;12.05;8.07;;;11.90;99.90;;;;;;5098301;28;20035;-75
2021/08/26 04:53:11;;;;;;;10.20;7.82;;;11.90;99.90;;;;;;5102211;27;20050;-75
2021/08/26 04:55:36;;;;;;;13.35;8.10;;;12.00;99.90;;;;;;5116388;27;20117;-73
2021/08/26 04:58:02;;;;;;;12.00;8.48;;;12.00;99.90;;;;;;5112248;28;20032;-73
2021/08/26 05:00:27;;;;;;;10.60;7.88;;;12.00;99.90;;;;;;5112234;28;20102;-73
2021/08/26 05:02:53;;;;;;;13.00;8.40;;;12.10;99.90;;;;;;5116059;28;20016;-73
2021/08/26 05:05:19;;;;;;;11.25;7.80;;;12.10;99.90;;;;;;5124472;27;20035;-73
2021/08/26 05:07:44;;;;;;;16.75;8.25;;;12.10;99.90;;;;;;5127758;27;20024;-73
2021/08/26 05:10:10;;;;;;;14.60;8.20;;;12.20;99.90;;;;;;5113092;28;20023;-73
2021/08/26 05:12:35;;;;;;;12.07;7.85;;;12.20;99.90;;;;;;5113584;27;20062;-74
2021/08/26 05:15:01;;;;;;;11.75;7.15;;;12.20;99.90;;;;;;5113503;27;20032;-75
2021/08/26 05:17:27;;;;;;;11.85;7.90;;;12.30;99.90;;;;;;5101785;28;20051;-73
2021/08/26 05:19:52;;;;;;;12.43;7.43;;;12.40;99.90;;;;;;5102298;28;20069;-75
2021/08/26 05:22:18;;;;;;;12.55;8.30;;;12.50;99.90;;;;;;5074645;28;20016;-73
2021/08/26 05:24:43;;;;;;;14.05;7.90;;;12.60;99.90;;;;;;5110307;28;20790;-73
2021/08/26 05:27:11;;;;;;;12.35;7.68;;;12.60;99.90;;;;;;5107792;28;20032;-73
2021/08/26 05:29:37;;;;;;;12.63;8.05;;;12.70;99.90;;;;;;5098531;28;20362;-74
2021/08/26 05:32:03;;;;;;;13.15;7.63;;;12.80;99.90;;;;;;5102610;28;20047;-75
2021/08/26 05:34:28;;;;;;;10.52;7.53;;;12.80;99.90;;;;;;5100228;28;20079;-74
2021/08/26 05:36:54;;;;;;;10.63;7.93;;;12.90;99.90;;;;;;5111494;28;20037;-74
2021/08/26 05:39:19;;;;;;;11.43;7.95;;;12.90;99.90;;;;;;5114541;28;20016;-75
2021/08/26 05:41:47;;;;;;;14.52;7.80;;;13.00;99.90;;;;;;5096818;28;20019;-73
2021/08/26 05:44:17;;;;;;;11.80;7.80;;;13.00;99.90;;;;;;5114585;28;20483;-73
2021/08/26 05:46:44;;;;;;;10.38;7.40;;;13.10;99.90;;;;;;5114572;28;20020;-73
2021/08/26 05:49:13;;;;;;;13.02;7.65;;;13.20;99.90;;;;;;5114477;28;20075;-73
2021/08/26 05:51:39;;;;;;;13.70;7.78;;;13.30;99.90;;;;;;5114140;28;20022;-73
2021/08/26 05:54:05;;;;;;;10.48;7.20;;;13.40;99.90;;;;;;5114401;28;20023;-73
2021/08/26 05:56:31;;;;;;;10.85;7.50;;;13.50;99.90;;;;;;5111422;28;20024;-75
2021/08/26 05:58:56;;;;;;;12.32;8.15;;;13.60;99.90;;;;;;5064152;28;20111;-75
2021/08/26 06:01:27;;;;;;;13.75;7.80;;;13.70;99.90;;;;;;5102291;27;20376;-76
2021/08/26 06:03:52;;;;;;;10.45;6.88;;;13.80;99.90;;;;;;5107658;27;20080;-76
2021/08/26 06:06:18;;;;;;;13.55;7.45;;;13.80;99.90;;;;;;5091225;28;20028;-75
2021/08/26 06:08:43;;;;;;;11.68;7.43;;;14.00;99.90;;;;;;5106573;28;20027;-74
2021/08/26 06:11:09;;;;;;;10.98;7.00;;;14.10;99.90;;;;;;5095244;28;20016;-74
2021/08/26 06:13:35;;;;;;;11.63;7.07;;;14.20;99.90;;;;;;5108677;28;20447;-73
2021/08/26 06:16:00;;;;;;;9.55;6.65;;;14.20;99.90;;;;;;5110004;28;20107;-73
2021/08/26 06:18:26;;;;;;;10.75;7.45;;;14.20;99.90;;;;;;5113784;28;20029;-73
2021/08/26 06:20:52;;;;;;;12.20;7.28;;;14.30;99.90;;;;;;5109894;28;20139;-73
2021/08/26 06:23:18;;;;;;;12.00;6.30;;;14.30;99.90;;;;;;5112183;28;20426;-73
2021/08/26 06:25:44;;;;;;;13.45;7.45;;;14.50;99.90;;;;;;5089093;28;20433;-75
2021/08/26 06:28:10;;;;;;;10.93;7.55;;;14.50;99.90;;;;;;5103338;27;20028;-76
2021/08/26 06:30:35;;;;;;;10.70;6.53;;;14.60;99.90;;;;;;5106433;27;20359;-75
2021/08/26 06:33:01;;;;;;;14.25;7.78;;;14.70;99.90;;;;;;5073557;28;20611;-75
2021/08/26 06:35:27;;;;;;;12.82;7.53;;;14.70;99.90;;;;;;5098568;28;20254;-74
2021/08/26 06:37:53;;;;;;;11.85;7.75;;;14.70;99.90;;;;;;5110907;28;20456;-74
2021/08/26 06:40:18;;;;;;;9.93;7.30;;;14.70;99.90;;;;;;5096742;28;20032;-73
2021/08/26 06:42:44;;;;;;;15.70;8.18;;;14.80;99.90;;;;;;5112950;28;20038;-74
2021/08/26 06:45:10;;;;;;;12.30;7.60;;;14.80;99.90;;;;;;5112112;28;20031;-74
2021/08/26 06:47:36;;;;;;;15.48;7.43;;;14.80;99.90;;;;;;5095567;28;20063;-72
2021/08/26 06:50:02;;;;;;;12.45;7.88;;;14.90;99.90;;;;;;5093136;28;20029;-73
2021/08/26 06:52:28;;;;;;;12.13;7.47;;;15.00;99.90;;;;;;5109657;28;20162;-73
2021/08/26 06:54:53;;;;;;;10.77;7.65;;;15.00;99.90;;;;;;5110066;28;20099;-72
2021/08/26 06:57:19;;;;;;;12.77;7.90;;;15.00;99.90;;;;;;5113675;28;20038;-73
2021/08/26 06:59:45;;;;;;;14.18;7.43;;;15.10;99.90;;;;;;5113239;28;20027;-73
2021/08/26 07:02:11;;;;;;;13.45;7.72;;;15.00;99.90;;;;;;5084640;28;20028;-72
2021/08/26 07:04:36;;;;;;;9.57;7.28;;;15.00;99.90;;;;;;5093558;28;20036;-75
2021/08/26 07:07:02;;;;;;;11.07;8.25;;;15.10;99.90;;;;;;5100175;28;20036;-74
2021/08/26 07:09:28;;;;;;;12.32;8.40;;;15.20;99.90;;;;;;5093595;28;20043;-74
2021/08/26 07:11:54;;;;;;;11.23;7.95;;;15.30;99.90;;;;;;5107385;28;20099;-72
2021/08/26 07:14:19;;;;;;;12.15;8.45;;;15.30;99.90;;;;;;5093920;28;20032;-73
2021/08/26 07:16:45;;;;;;;14.80;8.20;;;15.40;99.90;;;;;;5105446;28;20059;-74
2021/08/26 07:19:11;;;;;;;12.50;8.48;;;15.50;99.90;;;;;;5101737;28;20056;-74
2021/08/26 07:21:37;;;;;;;13.27;8.90;;;15.50;99.90;;;;;;5106978;28;20588;-75
2021/08/26 07:24:03;;;;;;;13.02;8.45;;;15.60;99.90;;;;;;5098019;28;20479;-74
2021/08/26 07:26:29;;;;;;;13.20;8.73;;;15.70;99.90;;;;;;5092633;28;20747;-75
2021/08/26 07:28:55;;;;;;;13.68;9.95;;;15.80;99.90;;;;;;5091948;28;20028;-73
2021/08/26 07:31:24;;;;;;;17.98;10.50;;;15.80;99.90;;;;;;5101520;28;20040;-75
2021/08/26 07:33:50;;;;;;;18.67;10.85;;;15.90;99.90;;;;;;5095382;28;20570;-75
2021/08/26 07:36:16;;;;;;;18.98;11.30;;;15.80;99.90;;;;;;5084856;28;20055;-74
2021/08/26 07:38:41;;;;;;;17.15;10.88;;;15.90;99.90;;;;;;5102223;28;20028;-75
2021/08/26 07:41:07;;;;;;;20.00;11.50;;;15.90;99.90;;;;;;5098216;28;20055;-74
2021/08/26 07:43:35;;;;;;;17.73;11.70;;;16.00;99.90;;;;;;5099949;28;20055;-75
2021/08/26 07:46:00;;;;;;;16.45;11.95;;;15.90;99.90;;;;;;5092735;28;20144;-74
2021/08/26 07:48:26;;;;;;;20.40;12.43;;;15.90;99.90;;;;;;5102934;28;20126;-74
2021/08/26 07:50:53;;;;;;;17.70;11.07;;;15.90;99.90;;;;;;5082269;28;20027;-75
2021/08/26 07:53:19;;;;;;;20.35;12.32;;;15.90;99.90;;;;;;5096646;28;20880;-75
2021/08/26 07:55:45;;;;;;;22.55;12.30;;;15.90;99.90;;;;;;5091885;28;20036;-75
2021/08/26 07:58:11;;;;;;;16.90;11.55;;;15.80;99.90;;;;;;5095947;28;20028;-75
2021/08/26 08:00:36;;;;;;;16.40;11.65;;;15.80;99.90;;;;;;5102855;28;20060;-74
2021/08/26 08:03:03;;;;;;;19.17;12.20;;;15.70;99.90;;;;;;5100655;28;20032;-75
2021/08/26 08:05:28;;;;;;;18.48;12.02;;;15.60;99.90;;;;;;5078084;28;20028;-73
2021/08/26 08:07:55;;;;;;;17.80;11.30;;;15.70;99.90;;;;;;5112147;28;20053;-73
2021/08/26 08:10:20;;;;;;;17.48;11.57;;;15.60;99.90;;;;;;5114443;28;20401;-73
2021/08/26 08:12:46;;;;;;;17.45;11.93;;;15.60;99.90;;;;;;5102306;28;20034;-73
2021/08/26 08:15:12;;;;;;;20.52;12.38;;;15.60;99.90;;;;;;5116868;28;20059;-73
2021/08/26 08:17:38;;;;;;;20.77;12.32;;;15.60;99.90;;;;;;5113975;28;20078;-73
2021/08/26 08:20:05;;;;;;;19.45;13.10;;;15.60;99.90;;;;;;5114781;28;20043;-74
2021/08/26 08:22:33;;;;;;;19.58;13.23;;;15.60;99.90;;;;;;5096289;28;20051;-75
2021/08/26 08:24:59;;;;;;;21.10;13.82;;;15.50;99.90;;;;;;5100789;28;20023;-75
2021/08/26 08:27:25;;;;;;;18.70;13.25;;;15.30;99.90;;;;;;5095993;28;20039;-74
2021/08/26 08:29:50;;;;;;;21.83;14.00;;;15.30;99.90;;;;;;5087886;28;20027;-74
2021/08/26 08:32:16;;;;;;;22.75;15.10;;;15.30;99.90;;;;;;5095145;28;20038;-74
2021/08/26 08:34:42;;;;;;;20.83;16.08;;;15.20;99.90;;;;;;5103190;27;20030;-74
2021/08/26 08:37:07;;;;;;;23.05;15.63;;;15.30;99.90;;;;;;5086738;28;20119;-75
2021/08/26 08:39:33;;;;;;;21.13;15.30;;;15.30;99.90;;;;;;5102326;27;20034;-75
2021/08/26 08:41:59;;;;;;;20.10;14.25;;;15.30;99.90;;;;;;5101600;28;20063;-74
2021/08/26 08:44:24;;;;;;;22.33;15.13;;;15.30;99.90;;;;;;5108294;27;20058;-74
2021/08/26 08:46:54;;;;;;;24.15;14.68;;;15.30;99.90;;;;;;5083598;28;20537;-75
2021/08/26 08:49:20;;;;;;;25.73;15.70;;;15.40;99.90;;;;;;5106412;28;20428;-75
2021/08/26 08:51:47;;;;;;;25.02;15.63;;;15.40;99.90;;;;;;5104107;27;20103;-75
2021/08/26 08:54:13;;;;;;;21.90;15.50;;;15.50;99.90;;;;;;5092651;28;20029;-75
2021/08/26 08:56:38;;;;;;;28.23;16.65;;;15.50;99.90;;;;;;5118622;27;20024;-75
2021/08/26 08:59:04;;;;;;;22.40;16.52;;;15.60;99.90;;;;;;5099027;28;20027;-78
2021/08/26 09:01:29;;;;;;;24.48;17.35;;;15.60;99.90;;;;;;5113065;28;20098;-75
2021/08/26 09:03:55;;;;;;;24.60;16.25;;;15.70;99.90;;;;;;5115296;28;20107;-75
2021/08/26 09:06:21;;;;;;;23.77;17.83;;;15.60;99.90;;;;;;5115322;28;20451;-75
2021/08/26 09:09:06;;;;;;;26.30;17.60;;;15.60;99.90;;;;;;5115443;28;20028;-75
2021/08/26 09:11:32;;;;;;;;;;;15.60;99.90;;;;;;5115465;28;20061;-75
2021/08/26 09:14:11;;;;;;;36.92;17.40;;;15.60;99.90;;;;;;5115285;28;20394;-75
2021/08/26 09:16:43;;;;;;;27.13;19.35;;;15.60;99.90;;;;;;5115702;27;20065;-74
2021/08/26 09:19:18;;;;;;;24.33;18.23;;;15.60;99.90;;;;;;5117419;27;20042;-73
2021/08/26 09:21:44;;;;;;;24.25;18.35;;;15.50;99.90;;;;;;5136420;27;20024;-73
2021/08/26 09:24:10;;;;;;;25.25;17.35;;;15.50;99.90;;;;;;5136112;27;20026;-74
2021/08/26 09:26:36;;;;;;;24.48;17.70;;;15.40;99.90;;;;;;5117021;27;20038;-74
2021/08/26 09:29:04;;;;;;;25.20;18.00;;;15.40;99.90;;;;;;5135901;27;20044;-74
2021/08/26 09:31:31;;;;;;;24.77;17.77;;;15.40;99.90;;;;;;5135420;27;20088;-74
2021/08/26 09:33:57;;;;;;;25.27;17.85;;;15.40;99.90;;;;;;5095685;27;20028;-78
2021/08/26 09:36:24;;;;;;;25.25;17.27;;;15.40;99.90;;;;;;5076165;28;20560;-78
2021/08/26 09:38:54;;;;;;;24.63;16.92;;;15.20;99.90;;;;;;5105263;27;20034;-78
2021/08/26 09:41:41;;;;;;;25.35;17.98;;;15.10;99.90;;;;;;5104991;28;20498;-79
2021/08/26 09:44:12;;;;;;;26.42;17.60;;;15.10;99.90;;;;;;5112740;28;20023;-74
2021/08/26 09:46:39;;;;;;;24.23;17.00;;;15.00;99.90;;;;;;5095456;28;20082;-78
2021/08/26 09:49:11;;;;;;;24.50;17.38;;;15.00;99.90;;;;;;5108796;28;20027;-75
2021/08/26 09:51:37;;;;;;;23.67;16.73;;;14.90;99.90;;;;;;5114624;28;20023;-75
2021/08/26 09:54:03;;;;;;;26.63;17.42;;;14.90;99.90;;;;;;5093833;28;20028;-79
2021/08/26 09:56:41;;;;;;;22.80;17.38;;;14.90;99.90;;;;;;5086461;28;20035;-78
2021/08/26 09:59:07;;;;;;;23.65;16.58;;;14.90;99.90;;;;;;5111807;28;20045;-80
2021/08/26 10:01:37;;;;;;;28.50;18.05;;;15.00;99.90;;;;;;5124584;27;20019;-74
2021/08/26 10:04:03;;;;;;;22.10;15.32;;;15.00;99.90;;;;;;5134904;27;20064;-74
2021/08/26 10:06:30;;;;;;;25.52;16.98;;;14.90;99.90;;;;;;5126324;27;20023;-79
2021/08/26 10:08:56;;;;;;;24.77;16.80;;;14.90;99.90;;;;;;5114449;27;20023;-79
2021/08/26 10:11:23;;;;;;;27.05;17.45;;;15.00;99.90;;;;;;5125023;27;20450;-78
2021/08/26 10:13:50;;;;;;;21.05;16.33;;;15.00;99.90;;;;;;5106169;28;20038;-78
2021/08/26 10:16:16;;;;;;;33.05;23.83;;;15.10;99.90;;;;;;5095674;28;20043;-78
2021/08/26 10:18:42;;;;;;;21.98;15.02;;;15.00;99.90;;;;;;5109780;28;20050;-79
2021/08/26 10:21:10;;;;;;;20.92;14.80;;;15.10;99.90;;;;;;5084590;28;20892;-77
2021/08/26 10:23:41;;;;;;;21.77;15.57;;;15.20;99.90;;;;;;5090223;28;20028;-80
2021/08/26 10:26:13;;;;;;;21.65;15.13;;;15.00;99.90;;;;;;5112319;28;20028;-79
2021/08/26 10:28:42;;;;;;;22.27;14.68;;;15.10;99.90;;;;;;5107885;28;20498;-73
2021/08/26 10:31:23;;;;;;;21.75;15.55;;;15.10;99.90;;;;;;5091239;28;20039;-73
2021/08/26 10:33:49;;;;;;;23.20;15.10;;;15.10;99.90;;;;;;5110443;28;20031;-73
2021/08/26 10:36:15;;;;;;;21.90;15.00;;;15.10;99.90;;;;;;5109710;28;20139;-73
2021/08/26 10:38:42;;;;;;;20.13;14.27;;;15.10;99.90;;;;;;5087860;28;20025;-73
2021/08/26 10:41:27;;;;;;;22.80;14.25;;;15.10;99.90;;;;;;5107912;28;20032;-73
2021/08/26 10:44:00;;;;;;;25.58;15.13;;;15.10;99.90;;;;;;5104491;28;20546;-74
2021/08/26 10:46:49;;;;;;;19.55;14.23;;;15.10;99.90;;;;;;5100768;28;20030;-73
2021/08/26 10:49:16;;;;;;;18.38;13.25;;;15.00;99.90;;;;;;5113726;28;20168;-74
2021/08/26 10:51:44;;;;;;;20.60;13.57;;;15.10;99.90;;;;;;5113380;28;20047;-74
2021/08/26 10:54:28;;;;;;;21.52;14.32;;;15.10;99.90;;;;;;5109719;28;20036;-73
2021/08/26 10:56:55;;;;;;;21.63;15.38;;;15.10;99.90;;;;;;5113895;28;20432;-73
2021/08/26 10:59:33;;;;;;;21.35;14.45;;;15.10;99.90;;;;;;5095110;28;20031;-75
2021/08/26 11:01:59;;;;;;;19.52;13.85;;;15.10;99.90;;;;;;5095215;28;20073;-74
2021/08/26 11:04:33;;;;;;;20.13;13.82;;;15.00;99.90;;;;;;5113274;28;20028;-74
2021/08/26 11:06:59;;;;;;;23.90;14.60;;;15.00;99.90;;;;;;5095952;28;20123;-80
2021/08/26 11:09:30;;;;;;;20.55;14.25;;;15.00;99.90;;;;;;5103594;28;20085;-78
2021/08/26 11:12:03;;;;;;;19.88;13.20;;;15.00;99.90;;;;;;5107026;28;20379;-79
2021/08/26 11:14:33;;;;;;;18.63;13.30;;;15.00;99.90;;;;;;5108036;27;20123;-79
2021/08/26 11:17:04;;;;;;;19.27;13.13;;;15.00;99.90;;;;;;5108412;27;20537;-79
2021/08/26 11:19:34;;;;;;;16.35;11.52;;;14.90;99.90;;;;;;5095322;28;20564;-79
2021/08/26 11:22:03;;;;;;;18.27;12.23;;;15.00;99.90;;;;;;5076772;28;20101;-78
2021/08/26 11:24:29;;;;;;;20.13;12.20;;;14.90;99.90;;;;;;5105084;27;20085;-78
2021/08/26 11:26:55;;;;;;;19.05;11.77;;;14.90;99.90;;;;;;5105883;27;20485;-78
2021/08/26 11:29:20;;;;;;;15.15;10.60;;;14.90;99.90;;;;;;5093642;28;20101;-78
2021/08/26 11:31:55;;;;;;;15.50;10.50;;;14.90;99.90;;;;;;5112332;27;20114;-78
2021/08/26 11:34:39;;;;;;;16.83;11.07;;;14.80;99.90;;;;;;5094356;28;20424;-78
2021/08/26 11:37:06;;;;;;;16.77;9.75;;;14.80;99.90;;;;;;5100417;28;20043;-78
2021/08/26 11:39:38;;;;;;;15.95;10.60;;;14.80;99.90;;;;;;5101458;27;20024;-79
2021/08/26 11:42:10;;;;;;;17.65;12.25;;;14.80;99.90;;;;;;5097522;28;20040;-78
2021/08/26 11:44:36;;;;;;;16.80;10.93;;;14.80;99.90;;;;;;5096872;28;20070;-78
2021/08/26 11:47:02;;;;;;;15.00;11.25;;;14.70;99.90;;;;;;5090027;28;20555;-78
2021/08/26 11:49:36;;;;;;;18.70;12.52;;;14.60;99.90;;;;;;5107633;28;20032;-79
2021/08/26 11:52:13;;;;;;;20.08;13.27;;;14.60;99.90;;;;;;5095487;28;20434;-78
2021/08/26 11:54:44;;;;;;;21.73;13.65;;;14.60;99.90;;;;;;5098038;28;20105;-78
2021/08/26 11:57:10;;;;;;;19.08;13.20;;;14.50;99.90;;;;;;5106223;27;20050;-79
2021/08/26 11:59:37;;;;;;;21.00;14.02;;;14.40;99.90;;;;;;5113916;27;20023;-79
2021/08/26 12:02:23;;;;;;;21.38;13.80;;;14.40;99.90;;;;;;5119779;27;20038;-78
2021/08/26 12:04:54;;;;;;;19.15;14.00;;;14.30;99.90;;;;;;5124349;27;20035;-78
2021/08/26 12:07:42;;;;;;;25.00;16.27;;;14.30;99.90;;;;;;5099500;28;20024;-78
2021/08/26 12:10:17;;;;;;;20.08;15.50;;;14.30;99.90;;;;;;5121487;27;20027;-78
2021/08/26 12:13:06;;;;;;;22.65;15.65;;;14.30;99.90;;;;;;5119013;27;20031;-78
2021/08/26 12:15:39;;;;;;;21.52;13.93;;;14.30;99.90;;;;;;5098701;27;20042;-78
2021/08/26 12:18:07;;;;;;;21.67;14.98;;;14.30;99.90;;;;;;5120506;27;20038;-79
2021/08/26 12:20:47;;;;;;;20.35;15.02;;;14.20;99.90;;;;;;5104958;27;20114;-78
2021/08/26 12:23:17;;;;;;;20.45;14.55;;;14.30;99.90;;;;;;5112505;27;20030;-78
2021/08/26 12:25:43;;;;;;;19.15;14.32;;;14.20;99.90;;;;;;5088859;28;20555;-78
2021/08/26 12:28:11;;;;;;;21.98;15.38;;;14.20;99.90;;;;;;5124535;22;20060;-73
2021/08/26 12:30:42;;;;;;;18.33;14.93;;;14.20;99.90;;;;;;5082031;28;20016;-77
2021/08/26 12:33:15;;;;;;;20.15;15.48;;;14.10;99.90;;;;;;5072525;28;20017;-77
2021/08/26 12:35:44;;;;;;;18.58;14.30;;;14.10;99.90;;;;;;5074615;28;20027;-75
2021/08/26 12:38:11;;;;;;;18.40;14.38;;;14.00;99.90;;;;;;5075510;28;20381;-73